sensor_id;sensor_type;location;lat;lon;timestamp;P1;durP1;ratioP1;P2;durP2;ratioP2
13171;SDS011;6651;53.200;10.432;2023-07-02T00:02:24;7.43;;;4.00;;
13171;SDS011;6651;53.200;10.432;2023-07-02T00:04:50;7.35;;;4.13;;
13171;SDS011;6651;53.200;10.432;2023-07-02T00:07:15;7.72;;;4.30;;
13171;SDS011;6651;53.200;10.432;2023-07-02T00:09:41;7.00;;;4.13;;
13171;SDS011;6651;53.200;10.432;2023-07-02T00:12:07;6.47;;;3.92;;
13171;SDS011;6651;53.200;10.432;2023-07-02T00:14:33;6.40;;;4.10;;
13171;SDS011;6651;53.200;10.432;2023-07-02T00:16:59;5.78;;;3.95;;
13171;SDS011;6651;53.200;10.432;2023-07-02T00:19:24;8.27;;;4.43;;
13171;SDS011;6651;53.200;10.432;2023-07-02T00:21:50;5.07;;;4.47;;
13171;SDS011;6651;53.200;10.432;2023-07-02T00:24:18;7.07;;;4.28;;
13171;SDS011;6651;53.200;10.432;2023-07-02T00:26:44;7.28;;;4.50;;
13171;SDS011;6651;53.200;10.432;2023-07-02T00:29:10;8.95;;;4.50;;
13171;SDS011;6651;53.200;10.432;2023-07-02T00:31:36;6.68;;;4.38;;
13171;SDS011;6651;53.200;10.432;2023-07-02T00:34:02;7.18;;;3.97;;
13171;SDS011;6651;53.200;10.432;2023-07-02T00:36:29;6.82;;;4.00;;
13171;SDS011;6651;53.200;10.432;2023-07-02T00:38:55;6.53;;;4.00;;
13171;SDS011;6651;53.200;10.432;2023-07-02T00:41:21;8.95;;;4.10;;
13171;SDS011;6651;53.200;10.432;2023-07-02T00:43:47;6.75;;;3.95;;
13171;SDS011;6651;53.200;10.432;2023-07-02T00:46:13;9.13;;;4.15;;
13171;SDS011;6651;53.200;10.432;2023-07-02T00:48:45;8.15;;;4.00;;
13171;SDS011;6651;53.200;10.432;2023-07-02T00:51:16;6.45;;;4.07;;
13171;SDS011;6651;53.200;10.432;2023-07-02T00:53:47;6.78;;;4.03;;
13171;SDS011;6651;53.200;10.432;2023-07-02T00:56:14;5.80;;;3.70;;
13171;SDS011;6651;53.200;10.432;2023-07-02T00:58:41;6.63;;;3.78;;
13171;SDS011;6651;53.200;10.432;2023-07-02T01:01:23;6.93;;;3.78;;
13171;SDS011;6651;53.200;10.432;2023-07-02T01:03:53;8.23;;;4.05;;
13171;SDS011;6651;53.200;10.432;2023-07-02T01:06:27;6.40;;;3.75;;
13171;SDS011;6651;53.200;10.432;2023-07-02T01:08:58;7.38;;;4.20;;
13171;SDS011;6651;53.200;10.432;2023-07-02T01:11:27;5.38;;;3.67;;
13171;SDS011;6651;53.200;10.432;2023-07-02T01:13:59;7.03;;;3.80;;
13171;SDS011;6651;53.200;10.432;2023-07-02T01:16:42;8.05;;;4.15;;
13171;SDS011;6651;53.200;10.432;2023-07-02T01:19:13;6.53;;;4.40;;
13171;SDS011;6651;53.200;10.432;2023-07-02T01:21:44;5.97;;;3.70;;
13171;SDS011;6651;53.200;10.432;2023-07-02T01:24:11;6.60;;;4.10;;
13171;SDS011;6651;53.200;10.432;2023-07-02T01:26:37;6.20;;;3.60;;
13171;SDS011;6651;53.200;10.432;2023-07-02T01:29:19;8.25;;;3.92;;
13171;SDS011;6651;53.200;10.432;2023-07-02T01:31:46;8.20;;;4.20;;
13171;SDS011;6651;53.200;10.432;2023-07-02T01:34:13;8.35;;;3.80;;
13171;SDS011;6651;53.200;10.432;2023-07-02T01:36:39;8.75;;;4.00;;
13171;SDS011;6651;53.200;10.432;2023-07-02T01:39:05;8.10;;;4.05;;
13171;SDS011;6651;53.200;10.432;2023-07-02T01:41:42;7.18;;;4.00;;
13171;SDS011;6651;53.200;10.432;2023-07-02T01:44:09;5.22;;;3.80;;
13171;SDS011;6651;53.200;10.432;2023-07-02T01:46:36;7.35;;;3.88;;
13171;SDS011;6651;53.200;10.432;2023-07-02T01:49:01;6.55;;;4.15;;
13171;SDS011;6651;53.200;10.432;2023-07-02T01:51:27;5.15;;;4.10;;
13171;SDS011;6651;53.200;10.432;2023-07-02T01:53:53;8.10;;;4.00;;
13171;SDS011;6651;53.200;10.432;2023-07-02T01:56:18;7.40;;;4.10;;
13171;SDS011;6651;53.200;10.432;2023-07-02T01:58:44;5.47;;;4.10;;
13171;SDS011;6651;53.200;10.432;2023-07-02T02:01:10;7.07;;;4.07;;
13171;SDS011;6651;53.200;10.432;2023-07-02T02:03:35;6.00;;;3.95;;
13171;SDS011;6651;53.200;10.432;2023-07-02T02:06:01;8.68;;;4.25;;
13171;SDS011;6651;53.200;10.432;2023-07-02T02:08:27;4.95;;;3.70;;
13171;SDS011;6651;53.200;10.432;2023-07-02T02:10:52;5.50;;;4.00;;
13171;SDS011;6651;53.200;10.432;2023-07-02T02:13:18;5.43;;;4.03;;
13171;SDS011;6651;53.200;10.432;2023-07-02T02:15:44;7.10;;;4.05;;
13171;SDS011;6651;53.200;10.432;2023-07-02T02:18:12;6.47;;;4.15;;
13171;SDS011;6651;53.200;10.432;2023-07-02T02:20:38;7.90;;;4.32;;
13171;SDS011;6651;53.200;10.432;2023-07-02T02:23:04;6.85;;;4.10;;
13171;SDS011;6651;53.200;10.432;2023-07-02T02:25:30;7.45;;;4.22;;
13171;SDS011;6651;53.200;10.432;2023-07-02T02:27:55;5.43;;;3.83;;
13171;SDS011;6651;53.200;10.432;2023-07-02T02:30:21;4.95;;;3.63;;
13171;SDS011;6651;53.200;10.432;2023-07-02T02:32:47;7.45;;;4.07;;
13171;SDS011;6651;53.200;10.432;2023-07-02T02:35:14;6.55;;;4.07;;
13171;SDS011;6651;53.200;10.432;2023-07-02T02:37:40;9.95;;;4.30;;
13171;SDS011;6651;53.200;10.432;2023-07-02T02:40:09;5.90;;;3.90;;
13171;SDS011;6651;53.200;10.432;2023-07-02T02:42:35;6.43;;;3.83;;
13171;SDS011;6651;53.200;10.432;2023-07-02T02:45:01;8.50;;;3.92;;
13171;SDS011;6651;53.200;10.432;2023-07-02T02:47:27;7.00;;;3.80;;
13171;SDS011;6651;53.200;10.432;2023-07-02T02:49:53;5.68;;;3.92;;
13171;SDS011;6651;53.200;10.432;2023-07-02T02:52:19;5.88;;;4.18;;
13171;SDS011;6651;53.200;10.432;2023-07-02T02:54:45;8.13;;;4.30;;
13171;SDS011;6651;53.200;10.432;2023-07-02T02:57:11;8.27;;;4.25;;
13171;SDS011;6651;53.200;10.432;2023-07-02T02:59:37;7.55;;;4.65;;
13171;SDS011;6651;53.200;10.432;2023-07-02T03:02:02;7.97;;;4.25;;
13171;SDS011;6651;53.200;10.432;2023-07-02T03:04:29;6.07;;;4.30;;
13171;SDS011;6651;53.200;10.432;2023-07-02T03:06:54;10.98;;;4.20;;
13171;SDS011;6651;53.200;10.432;2023-07-02T03:09:21;8.07;;;4.22;;
13171;SDS011;6651;53.200;10.432;2023-07-02T03:11:46;5.93;;;4.25;;
13171;SDS011;6651;53.200;10.432;2023-07-02T03:14:12;8.18;;;3.97;;
13171;SDS011;6651;53.200;10.432;2023-07-02T03:16:40;8.48;;;4.30;;
13171;SDS011;6651;53.200;10.432;2023-07-02T03:19:06;9.43;;;4.85;;
13171;SDS011;6651;53.200;10.432;2023-07-02T03:21:32;8.38;;;4.10;;
13171;SDS011;6651;53.200;10.432;2023-07-02T03:23:58;7.20;;;4.18;;
13171;SDS011;6651;53.200;10.432;2023-07-02T03:26:24;6.95;;;4.00;;
13171;SDS011;6651;53.200;10.432;2023-07-02T03:28:50;9.93;;;4.53;;
13171;SDS011;6651;53.200;10.432;2023-07-02T03:31:15;9.90;;;5.00;;
13171;SDS011;6651;53.200;10.432;2023-07-02T03:33:41;6.95;;;4.30;;
13171;SDS011;6651;53.200;10.432;2023-07-02T03:36:07;8.02;;;4.25;;
13171;SDS011;6651;53.200;10.432;2023-07-02T03:38:32;7.55;;;4.25;;
13171;SDS011;6651;53.200;10.432;2023-07-02T03:40:58;7.95;;;4.53;;
13171;SDS011;6651;53.200;10.432;2023-07-02T03:43:24;6.22;;;4.15;;
13171;SDS011;6651;53.200;10.432;2023-07-02T03:45:51;7.68;;;4.75;;
13171;SDS011;6651;53.200;10.432;2023-07-02T03:48:17;7.25;;;4.43;;
13171;SDS011;6651;53.200;10.432;2023-07-02T03:50:43;8.20;;;4.50;;
13171;SDS011;6651;53.200;10.432;2023-07-02T03:53:08;9.15;;;4.75;;
13171;SDS011;6651;53.200;10.432;2023-07-02T03:55:35;6.88;;;4.68;;
13171;SDS011;6651;53.200;10.432;2023-07-02T03:58:01;9.23;;;4.68;;
13171;SDS011;6651;53.200;10.432;2023-07-02T04:00:26;9.80;;;5.00;;
13171;SDS011;6651;53.200;10.432;2023-07-02T04:02:52;8.18;;;4.70;;
13171;SDS011;6651;53.200;10.432;2023-07-02T04:05:18;9.07;;;4.82;;
13171;SDS011;6651;53.200;10.432;2023-07-02T04:07:45;8.27;;;4.57;;
13171;SDS011;6651;53.200;10.432;2023-07-02T04:10:10;11.50;;;4.90;;
13171;SDS011;6651;53.200;10.432;2023-07-02T04:12:36;7.80;;;4.45;;
13171;SDS011;6651;53.200;10.432;2023-07-02T04:15:02;10.57;;;5.03;;
13171;SDS011;6651;53.200;10.432;2023-07-02T04:17:28;7.50;;;4.80;;
13171;SDS011;6651;53.200;10.432;2023-07-02T04:19:54;9.88;;;5.00;;
13171;SDS011;6651;53.200;10.432;2023-07-02T04:22:20;9.02;;;4.90;;
13171;SDS011;6651;53.200;10.432;2023-07-02T04:24:46;8.88;;;4.90;;
13171;SDS011;6651;53.200;10.432;2023-07-02T04:27:14;9.07;;;5.13;;
13171;SDS011;6651;53.200;10.432;2023-07-02T04:29:42;10.68;;;5.18;;
13171;SDS011;6651;53.200;10.432;2023-07-02T04:32:09;11.25;;;5.15;;
13171;SDS011;6651;53.200;10.432;2023-07-02T04:34:34;9.25;;;5.38;;
13171;SDS011;6651;53.200;10.432;2023-07-02T04:37:02;12.30;;;5.50;;
13171;SDS011;6651;53.200;10.432;2023-07-02T04:39:28;12.25;;;5.53;;
13171;SDS011;6651;53.200;10.432;2023-07-02T04:41:54;10.63;;;5.43;;
13171;SDS011;6651;53.200;10.432;2023-07-02T04:44:20;9.77;;;5.20;;
13171;SDS011;6651;53.200;10.432;2023-07-02T04:46:47;10.85;;;5.45;;
13171;SDS011;6651;53.200;10.432;2023-07-02T04:49:13;9.40;;;5.18;;
13171;SDS011;6651;53.200;10.432;2023-07-02T04:51:39;10.68;;;5.70;;
13171;SDS011;6651;53.200;10.432;2023-07-02T04:54:05;10.70;;;5.78;;
13171;SDS011;6651;53.200;10.432;2023-07-02T04:56:31;8.75;;;5.13;;
13171;SDS011;6651;53.200;10.432;2023-07-02T04:58:56;9.88;;;5.32;;
13171;SDS011;6651;53.200;10.432;2023-07-02T05:01:22;9.43;;;5.47;;
13171;SDS011;6651;53.200;10.432;2023-07-02T05:03:48;12.48;;;5.80;;
13171;SDS011;6651;53.200;10.432;2023-07-02T05:06:13;11.70;;;5.75;;
13171;SDS011;6651;53.200;10.432;2023-07-02T05:08:39;11.45;;;6.00;;
13171;SDS011;6651;53.200;10.432;2023-07-02T05:11:05;14.30;;;5.82;;
13171;SDS011;6651;53.200;10.432;2023-07-02T05:13:30;8.23;;;5.32;;
13171;SDS011;6651;53.200;10.432;2023-07-02T05:15:56;12.68;;;5.72;;
13171;SDS011;6651;53.200;10.432;2023-07-02T05:18:21;11.65;;;6.22;;
13171;SDS011;6651;53.200;10.432;2023-07-02T05:20:47;11.98;;;5.47;;
13171;SDS011;6651;53.200;10.432;2023-07-02T05:23:13;10.40;;;5.22;;
13171;SDS011;6651;53.200;10.432;2023-07-02T05:25:38;11.52;;;5.95;;
13171;SDS011;6651;53.200;10.432;2023-07-02T05:28:04;12.27;;;5.90;;
13171;SDS011;6651;53.200;10.432;2023-07-02T05:30:30;11.50;;;5.97;;
13171;SDS011;6651;53.200;10.432;2023-07-02T05:32:55;12.10;;;5.75;;
13171;SDS011;6651;53.200;10.432;2023-07-02T05:35:21;11.05;;;5.95;;
13171;SDS011;6651;53.200;10.432;2023-07-02T05:37:47;10.55;;;5.50;;
13171;SDS011;6651;53.200;10.432;2023-07-02T05:40:12;13.43;;;6.30;;
13171;SDS011;6651;53.200;10.432;2023-07-02T05:42:38;11.77;;;6.30;;
13171;SDS011;6651;53.200;10.432;2023-07-02T05:45:04;11.27;;;6.28;;
13171;SDS011;6651;53.200;10.432;2023-07-02T05:47:30;13.65;;;6.18;;
13171;SDS011;6651;53.200;10.432;2023-07-02T05:49:56;11.90;;;6.28;;
13171;SDS011;6651;53.200;10.432;2023-07-02T05:52:21;14.15;;;6.63;;
13171;SDS011;6651;53.200;10.432;2023-07-02T05:54:47;14.45;;;6.68;;
13171;SDS011;6651;53.200;10.432;2023-07-02T05:57:13;14.00;;;6.45;;
13171;SDS011;6651;53.200;10.432;2023-07-02T05:59:39;12.40;;;6.65;;
13171;SDS011;6651;53.200;10.432;2023-07-02T06:02:05;11.00;;;6.68;;
13171;SDS011;6651;53.200;10.432;2023-07-02T06:04:31;12.10;;;6.10;;
13171;SDS011;6651;53.200;10.432;2023-07-02T06:06:56;14.15;;;6.85;;
13171;SDS011;6651;53.200;10.432;2023-07-02T06:09:22;12.30;;;6.43;;
13171;SDS011;6651;53.200;10.432;2023-07-02T06:11:48;15.18;;;7.07;;
13171;SDS011;6651;53.200;10.432;2023-07-02T06:14:14;12.45;;;6.50;;
13171;SDS011;6651;53.200;10.432;2023-07-02T06:16:39;14.80;;;6.22;;
13171;SDS011;6651;53.200;10.432;2023-07-02T06:19:05;14.50;;;6.43;;
13171;SDS011;6651;53.200;10.432;2023-07-02T06:21:31;13.32;;;6.50;;
13171;SDS011;6651;53.200;10.432;2023-07-02T06:23:57;15.98;;;6.68;;
13171;SDS011;6651;53.200;10.432;2023-07-02T06:26:23;12.80;;;6.18;;
13171;SDS011;6651;53.200;10.432;2023-07-02T06:28:49;12.93;;;6.18;;
13171;SDS011;6651;53.200;10.432;2023-07-02T06:31:15;13.18;;;6.65;;
13171;SDS011;6651;53.200;10.432;2023-07-02T06:33:41;15.50;;;6.82;;
13171;SDS011;6651;53.200;10.432;2023-07-02T06:36:07;13.65;;;6.63;;
13171;SDS011;6651;53.200;10.432;2023-07-02T06:38:33;13.70;;;7.50;;
13171;SDS011;6651;53.200;10.432;2023-07-02T06:40:58;17.23;;;6.60;;
13171;SDS011;6651;53.200;10.432;2023-07-02T06:43:24;16.48;;;7.18;;
13171;SDS011;6651;53.200;10.432;2023-07-02T06:45:50;14.07;;;6.53;;
13171;SDS011;6651;53.200;10.432;2023-07-02T06:48:15;13.63;;;6.55;;
13171;SDS011;6651;53.200;10.432;2023-07-02T06:50:46;14.20;;;7.10;;
13171;SDS011;6651;53.200;10.432;2023-07-02T06:53:11;16.35;;;7.22;;
13171;SDS011;6651;53.200;10.432;2023-07-02T06:55:37;14.13;;;6.65;;
13171;SDS011;6651;53.200;10.432;2023-07-02T06:58:06;16.63;;;7.22;;
13171;SDS011;6651;53.200;10.432;2023-07-02T07:00:33;14.63;;;6.88;;
13171;SDS011;6651;53.200;10.432;2023-07-02T07:03:03;14.65;;;6.55;;
13171;SDS011;6651;53.200;10.432;2023-07-02T07:05:30;16.30;;;6.93;;
13171;SDS011;6651;53.200;10.432;2023-07-02T07:07:56;16.30;;;7.28;;
13171;SDS011;6651;53.200;10.432;2023-07-02T07:10:22;17.13;;;7.38;;
13171;SDS011;6651;53.200;10.432;2023-07-02T07:12:48;13.82;;;6.85;;
13171;SDS011;6651;53.200;10.432;2023-07-02T07:15:14;14.68;;;7.25;;
13171;SDS011;6651;53.200;10.432;2023-07-02T07:17:39;14.98;;;7.00;;
13171;SDS011;6651;53.200;10.432;2023-07-02T07:20:05;14.27;;;7.05;;
13171;SDS011;6651;53.200;10.432;2023-07-02T07:22:31;15.23;;;6.85;;
13171;SDS011;6651;53.200;10.432;2023-07-02T07:24:58;15.00;;;7.72;;
13171;SDS011;6651;53.200;10.432;2023-07-02T07:27:23;16.38;;;7.07;;
13171;SDS011;6651;53.200;10.432;2023-07-02T07:29:49;13.93;;;6.60;;
13171;SDS011;6651;53.200;10.432;2023-07-02T07:32:15;16.83;;;7.55;;
13171;SDS011;6651;53.200;10.432;2023-07-02T07:34:41;14.50;;;7.20;;
13171;SDS011;6651;53.200;10.432;2023-07-02T07:37:07;18.23;;;6.97;;
13171;SDS011;6651;53.200;10.432;2023-07-02T07:39:33;14.82;;;7.25;;
13171;SDS011;6651;53.200;10.432;2023-07-02T07:42:00;16.90;;;7.65;;
13171;SDS011;6651;53.200;10.432;2023-07-02T07:44:25;14.13;;;7.45;;
13171;SDS011;6651;53.200;10.432;2023-07-02T07:46:57;15.15;;;7.03;;
13171;SDS011;6651;53.200;10.432;2023-07-02T07:49:22;14.55;;;7.63;;
13171;SDS011;6651;53.200;10.432;2023-07-02T07:51:48;15.10;;;7.30;;
13171;SDS011;6651;53.200;10.432;2023-07-02T07:54:14;14.60;;;7.25;;
13171;SDS011;6651;53.200;10.432;2023-07-02T07:56:39;13.93;;;7.03;;
13171;SDS011;6651;53.200;10.432;2023-07-02T07:59:05;16.67;;;7.53;;
13171;SDS011;6651;53.200;10.432;2023-07-02T08:01:31;17.30;;;7.47;;
13171;SDS011;6651;53.200;10.432;2023-07-02T08:03:56;14.73;;;7.57;;
13171;SDS011;6651;53.200;10.432;2023-07-02T08:06:22;13.80;;;6.80;;
13171;SDS011;6651;53.200;10.432;2023-07-02T08:08:48;13.93;;;7.40;;
13171;SDS011;6651;53.200;10.432;2023-07-02T08:11:14;14.85;;;7.60;;
13171;SDS011;6651;53.200;10.432;2023-07-02T08:13:39;16.05;;;7.75;;
13171;SDS011;6651;53.200;10.432;2023-07-02T08:16:05;15.73;;;7.05;;
13171;SDS011;6651;53.200;10.432;2023-07-02T08:18:31;16.85;;;8.13;;
13171;SDS011;6651;53.200;10.432;2023-07-02T08:20:56;14.82;;;7.32;;
13171;SDS011;6651;53.200;10.432;2023-07-02T08:23:22;13.20;;;7.35;;
13171;SDS011;6651;53.200;10.432;2023-07-02T08:25:48;13.20;;;7.05;;
13171;SDS011;6651;53.200;10.432;2023-07-02T08:28:13;13.05;;;6.78;;
13171;SDS011;6651;53.200;10.432;2023-07-02T08:30:39;14.48;;;7.53;;
13171;SDS011;6651;53.200;10.432;2023-07-02T08:33:05;14.05;;;7.40;;
13171;SDS011;6651;53.200;10.432;2023-07-02T08:35:30;13.02;;;6.43;;
13171;SDS011;6651;53.200;10.432;2023-07-02T08:37:56;13.02;;;7.07;;
13171;SDS011;6651;53.200;10.432;2023-07-02T08:40:22;13.52;;;7.00;;
13171;SDS011;6651;53.200;10.432;2023-07-02T08:42:47;13.88;;;7.15;;
13171;SDS011;6651;53.200;10.432;2023-07-02T08:45:16;13.88;;;7.53;;
13171;SDS011;6651;53.200;10.432;2023-07-02T08:47:43;12.00;;;6.82;;
13171;SDS011;6651;53.200;10.432;2023-07-02T08:50:11;14.23;;;6.90;;
13171;SDS011;6651;53.200;10.432;2023-07-02T08:52:37;13.27;;;6.80;;
13171;SDS011;6651;53.200;10.432;2023-07-02T08:55:03;14.50;;;7.00;;
13171;SDS011;6651;53.200;10.432;2023-07-02T08:57:30;13.23;;;6.55;;
13171;SDS011;6651;53.200;10.432;2023-07-02T08:59:55;12.85;;;6.82;;
13171;SDS011;6651;53.200;10.432;2023-07-02T09:02:33;12.52;;;6.20;;
13171;SDS011;6651;53.200;10.432;2023-07-02T09:04:59;11.05;;;6.45;;
13171;SDS011;6651;53.200;10.432;2023-07-02T09:07:25;9.60;;;6.10;;
13171;SDS011;6651;53.200;10.432;2023-07-02T09:09:51;17.95;;;6.65;;
13171;SDS011;6651;53.200;10.432;2023-07-02T09:14:57;11.48;;;6.30;;
13171;SDS011;6651;53.200;10.432;2023-07-02T09:17:32;14.60;;;7.25;;
13171;SDS011;6651;53.200;10.432;2023-07-02T09:20:00;11.27;;;6.80;;
13171;SDS011;6651;53.200;10.432;2023-07-02T09:22:27;12.48;;;6.50;;
13171;SDS011;6651;53.200;10.432;2023-07-02T09:24:54;13.70;;;6.70;;
13171;SDS011;6651;53.200;10.432;2023-07-02T09:27:32;12.60;;;6.05;;
13171;SDS011;6651;53.200;10.432;2023-07-02T09:30:12;12.85;;;6.40;;
13171;SDS011;6651;53.200;10.432;2023-07-02T09:32:40;14.38;;;6.55;;
13171;SDS011;6651;53.200;10.432;2023-07-02T09:35:06;14.40;;;6.53;;
13171;SDS011;6651;53.200;10.432;2023-07-02T09:37:32;13.57;;;6.30;;
13171;SDS011;6651;53.200;10.432;2023-07-02T09:39:58;10.82;;;6.30;;
13171;SDS011;6651;53.200;10.432;2023-07-02T09:42:27;11.23;;;6.20;;
13171;SDS011;6651;53.200;10.432;2023-07-02T09:44:58;13.35;;;6.78;;
13171;SDS011;6651;53.200;10.432;2023-07-02T09:47:25;12.77;;;6.60;;
13171;SDS011;6651;53.200;10.432;2023-07-02T09:49:53;12.77;;;6.30;;
13171;SDS011;6651;53.200;10.432;2023-07-02T09:52:20;12.68;;;6.60;;
13171;SDS011;6651;53.200;10.432;2023-07-02T09:54:47;13.77;;;6.35;;
13171;SDS011;6651;53.200;10.432;2023-07-02T09:57:13;10.63;;;6.18;;
13171;SDS011;6651;53.200;10.432;2023-07-02T09:59:39;9.65;;;5.88;;
13171;SDS011;6651;53.200;10.432;2023-07-02T10:02:05;11.45;;;6.30;;
13171;SDS011;6651;53.200;10.432;2023-07-02T10:04:43;9.18;;;6.03;;
13171;SDS011;6651;53.200;10.432;2023-07-02T10:07:12;11.20;;;6.28;;
13171;SDS011;6651;53.200;10.432;2023-07-02T10:09:50;13.35;;;5.90;;
13171;SDS011;6651;53.200;10.432;2023-07-02T10:12:19;9.98;;;5.45;;
13171;SDS011;6651;53.200;10.432;2023-07-02T10:14:51;10.82;;;5.35;;
13171;SDS011;6651;53.200;10.432;2023-07-02T10:17:30;11.85;;;5.20;;
13171;SDS011;6651;53.200;10.432;2023-07-02T10:20:01;10.35;;;5.00;;
13171;SDS011;6651;53.200;10.432;2023-07-02T10:22:46;11.02;;;5.25;;
13171;SDS011;6651;53.200;10.432;2023-07-02T10:25:24;9.07;;;5.00;;
13171;SDS011;6651;53.200;10.432;2023-07-02T10:27:54;10.93;;;5.15;;
13171;SDS011;6651;53.200;10.432;2023-07-02T10:30:30;10.20;;;5.68;;
13171;SDS011;6651;53.200;10.432;2023-07-02T10:33:13;11.55;;;5.53;;
13171;SDS011;6651;53.200;10.432;2023-07-02T10:35:43;9.65;;;4.95;;
13171;SDS011;6651;53.200;10.432;2023-07-02T10:38:17;9.82;;;4.50;;
13171;SDS011;6651;53.200;10.432;2023-07-02T10:40:53;9.68;;;4.50;;
13171;SDS011;6651;53.200;10.432;2023-07-02T10:43:27;9.43;;;4.43;;
13171;SDS011;6651;53.200;10.432;2023-07-02T10:45:53;6.57;;;4.10;;
13171;SDS011;6651;53.200;10.432;2023-07-02T10:48:19;8.60;;;4.40;;
13171;SDS011;6651;53.200;10.432;2023-07-02T10:50:45;8.52;;;4.45;;
13171;SDS011;6651;53.200;10.432;2023-07-02T10:53:17;7.80;;;4.25;;
13171;SDS011;6651;53.200;10.432;2023-07-02T10:55:44;10.23;;;4.68;;
13171;SDS011;6651;53.200;10.432;2023-07-02T10:58:10;11.55;;;5.10;;
13171;SDS011;6651;53.200;10.432;2023-07-02T11:00:46;9.00;;;5.22;;
13171;SDS011;6651;53.200;10.432;2023-07-02T11:03:16;10.73;;;5.68;;
13171;SDS011;6651;53.200;10.432;2023-07-02T11:05:48;12.32;;;6.10;;
13171;SDS011;6651;53.200;10.432;2023-07-02T11:08:15;11.10;;;5.63;;
13171;SDS011;6651;53.200;10.432;2023-07-02T11:10:41;10.80;;;5.82;;
13171;SDS011;6651;53.200;10.432;2023-07-02T11:13:16;10.98;;;5.88;;
13171;SDS011;6651;53.200;10.432;2023-07-02T11:15:43;11.32;;;5.78;;
13171;SDS011;6651;53.200;10.432;2023-07-02T11:18:13;12.43;;;5.55;;
13171;SDS011;6651;53.200;10.432;2023-07-02T11:20:40;12.13;;;5.65;;
13171;SDS011;6651;53.200;10.432;2023-07-02T11:23:20;10.45;;;5.75;;
13171;SDS011;6651;53.200;10.432;2023-07-02T11:25:54;12.77;;;5.85;;
13171;SDS011;6651;53.200;10.432;2023-07-02T11:28:23;11.43;;;5.32;;
13171;SDS011;6651;53.200;10.432;2023-07-02T11:30:49;10.90;;;5.10;;
13171;SDS011;6651;53.200;10.432;2023-07-02T11:33:15;12.32;;;5.95;;
13171;SDS011;6651;53.200;10.432;2023-07-02T11:35:41;9.95;;;5.13;;
13171;SDS011;6651;53.200;10.432;2023-07-02T11:38:08;11.88;;;5.40;;
13171;SDS011;6651;53.200;10.432;2023-07-02T11:40:35;11.35;;;6.53;;
13171;SDS011;6651;53.200;10.432;2023-07-02T11:43:01;10.82;;;5.88;;
13171;SDS011;6651;53.200;10.432;2023-07-02T11:45:27;11.25;;;6.00;;
13171;SDS011;6651;53.200;10.432;2023-07-02T11:47:53;7.75;;;4.93;;
13171;SDS011;6651;53.200;10.432;2023-07-02T11:50:19;9.50;;;5.60;;
13171;SDS011;6651;53.200;10.432;2023-07-02T11:52:45;10.18;;;5.22;;
13171;SDS011;6651;53.200;10.432;2023-07-02T11:55:11;14.50;;;5.65;;
13171;SDS011;6651;53.200;10.432;2023-07-02T11:57:37;9.13;;;5.30;;
13171;SDS011;6651;53.200;10.432;2023-07-02T12:00:03;7.55;;;4.70;;
13171;SDS011;6651;53.200;10.432;2023-07-02T12:02:29;10.10;;;4.80;;
13171;SDS011;6651;53.200;10.432;2023-07-02T12:04:55;9.85;;;5.05;;
13171;SDS011;6651;53.200;10.432;2023-07-02T12:07:21;9.88;;;4.38;;
13171;SDS011;6651;53.200;10.432;2023-07-02T12:09:48;9.15;;;4.50;;
13171;SDS011;6651;53.200;10.432;2023-07-02T12:12:14;9.15;;;4.50;;
13171;SDS011;6651;53.200;10.432;2023-07-02T12:14:40;8.80;;;4.28;;
13171;SDS011;6651;53.200;10.432;2023-07-02T12:17:08;7.60;;;4.35;;
13171;SDS011;6651;53.200;10.432;2023-07-02T12:19:37;9.35;;;4.68;;
13171;SDS011;6651;53.200;10.432;2023-07-02T12:22:06;10.65;;;4.70;;
13171;SDS011;6651;53.200;10.432;2023-07-02T12:24:35;7.65;;;4.68;;
13171;SDS011;6651;53.200;10.432;2023-07-02T12:27:01;13.43;;;5.18;;
13171;SDS011;6651;53.200;10.432;2023-07-02T12:29:27;11.48;;;5.32;;
13171;SDS011;6651;53.200;10.432;2023-07-02T12:31:53;11.55;;;5.90;;
13171;SDS011;6651;53.200;10.432;2023-07-02T12:34:18;9.85;;;5.00;;
13171;SDS011;6651;53.200;10.432;2023-07-02T12:36:44;11.50;;;5.85;;
13171;SDS011;6651;53.200;10.432;2023-07-02T12:39:10;8.52;;;5.10;;
13171;SDS011;6651;53.200;10.432;2023-07-02T12:41:35;9.50;;;5.05;;
13171;SDS011;6651;53.200;10.432;2023-07-02T12:44:01;9.30;;;5.03;;
13171;SDS011;6651;53.200;10.432;2023-07-02T12:46:27;8.18;;;4.40;;
13171;SDS011;6651;53.200;10.432;2023-07-02T12:48:55;11.40;;;4.25;;
13171;SDS011;6651;53.200;10.432;2023-07-02T12:51:21;7.88;;;4.68;;
13171;SDS011;6651;53.200;10.432;2023-07-02T12:53:47;8.82;;;4.60;;
13171;SDS011;6651;53.200;10.432;2023-07-02T12:56:13;10.57;;;4.53;;
13171;SDS011;6651;53.200;10.432;2023-07-02T12:58:38;11.45;;;4.72;;
13171;SDS011;6651;53.200;10.432;2023-07-02T13:01:04;7.57;;;4.30;;
13171;SDS011;6651;53.200;10.432;2023-07-02T13:03:30;10.30;;;5.30;;
13171;SDS011;6651;53.200;10.432;2023-07-02T13:05:56;9.60;;;4.35;;
13171;SDS011;6651;53.200;10.432;2023-07-02T13:08:22;9.82;;;4.60;;
13171;SDS011;6651;53.200;10.432;2023-07-02T13:10:47;7.80;;;4.60;;
13171;SDS011;6651;53.200;10.432;2023-07-02T13:13:13;7.00;;;3.88;;
13171;SDS011;6651;53.200;10.432;2023-07-02T13:15:39;9.75;;;4.55;;
13171;SDS011;6651;53.200;10.432;2023-07-02T13:18:04;8.27;;;4.20;;
13171;SDS011;6651;53.200;10.432;2023-07-02T13:20:30;7.07;;;4.00;;
13171;SDS011;6651;53.200;10.432;2023-07-02T13:22:56;9.70;;;4.60;;
13171;SDS011;6651;53.200;10.432;2023-07-02T13:25:23;10.63;;;4.45;;
13171;SDS011;6651;53.200;10.432;2023-07-02T13:27:49;9.82;;;4.18;;
13171;SDS011;6651;53.200;10.432;2023-07-02T13:30:14;11.27;;;4.22;;
13171;SDS011;6651;53.200;10.432;2023-07-02T13:32:43;6.72;;;3.33;;
13171;SDS011;6651;53.200;10.432;2023-07-02T13:35:08;7.25;;;3.33;;
13171;SDS011;6651;53.200;10.432;2023-07-02T13:37:34;9.15;;;3.80;;
13171;SDS011;6651;53.200;10.432;2023-07-02T13:40:00;7.65;;;3.63;;
13171;SDS011;6651;53.200;10.432;2023-07-02T13:42:25;10.88;;;4.03;;
13171;SDS011;6651;53.200;10.432;2023-07-02T13:44:51;8.30;;;3.30;;
13171;SDS011;6651;53.200;10.432;2023-07-02T13:47:17;7.15;;;3.58;;
13171;SDS011;6651;53.200;10.432;2023-07-02T13:49:42;6.40;;;3.58;;
13171;SDS011;6651;53.200;10.432;2023-07-02T13:52:08;11.70;;;3.70;;
13171;SDS011;6651;53.200;10.432;2023-07-02T13:54:34;9.38;;;3.63;;
13171;SDS011;6651;53.200;10.432;2023-07-02T13:57:00;7.93;;;3.50;;
13171;SDS011;6651;53.200;10.432;2023-07-02T13:59:25;8.18;;;3.30;;
13171;SDS011;6651;53.200;10.432;2023-07-02T14:01:51;6.50;;;2.92;;
13171;SDS011;6651;53.200;10.432;2023-07-02T14:04:17;5.45;;;3.42;;
13171;SDS011;6651;53.200;10.432;2023-07-02T14:06:43;6.55;;;3.40;;
13171;SDS011;6651;53.200;10.432;2023-07-02T14:09:09;7.45;;;3.58;;
13171;SDS011;6651;53.200;10.432;2023-07-02T14:11:37;8.73;;;3.70;;
13171;SDS011;6651;53.200;10.432;2023-07-02T14:14:04;9.18;;;3.60;;
13171;SDS011;6651;53.200;10.432;2023-07-02T14:16:30;6.13;;;3.30;;
13171;SDS011;6651;53.200;10.432;2023-07-02T14:18:56;6.45;;;3.17;;
13171;SDS011;6651;53.200;10.432;2023-07-02T14:21:22;8.10;;;3.78;;
13171;SDS011;6651;53.200;10.432;2023-07-02T14:23:47;7.45;;;3.20;;
13171;SDS011;6651;53.200;10.432;2023-07-02T14:26:13;9.68;;;3.67;;
13171;SDS011;6651;53.200;10.432;2023-07-02T14:28:39;6.70;;;3.63;;
13171;SDS011;6651;53.200;10.432;2023-07-02T14:31:05;6.38;;;3.17;;
13171;SDS011;6651;53.200;10.432;2023-07-02T14:33:32;6.90;;;3.40;;
13171;SDS011;6651;53.200;10.432;2023-07-02T14:35:59;6.93;;;3.38;;
13171;SDS011;6651;53.200;10.432;2023-07-02T14:38:26;8.45;;;3.55;;
13171;SDS011;6651;53.200;10.432;2023-07-02T14:40:52;8.35;;;3.67;;
13171;SDS011;6651;53.200;10.432;2023-07-02T14:43:19;8.02;;;3.70;;